Terminal Aerodrome Forecast
Issued by NWS

Home | Current Version | Previous Version | Text Only | Print | Product List | Glossary On
Versions: 1 2 3 4 5 6 7 8 9 10 11 12 13 14
000
FTUS42 KTBW 301745
TAFLAL
TAF
KLAL 301745Z 3018/0118 26009KT P6SM SCT030 SCT250
     FM010200 25005KT P6SM SCT200
     FM010500 VRB03KT P6SM FEW020 SCT200
     FM011500 25005KT P6SM SCT030 SCT250=

USA.gov is the U.S. government's official web portal to all federal, state and local government web resources and services.